Time;durP1;ratioP1;P1;durP2;ratioP2;P2;SDS_P1;SDS_P2;PMS_P1;PMS_P2;Temp;Humidity;BMP_temperature;BMP_pressure;BME280_temperature;BME280_humidity;BME280_pressure;Samples;Min_cycle;Max_cycle;Signal;HPM_P1;HPM_P2
2022/05/09 00:02:13;;;;;;;19.88;13.50;;;9.20;99.90;;;;;;5001280;28;20038;-89
2022/05/09 00:04:39;;;;;;;19.33;13.18;;;9.20;99.90;;;;;;4990754;28;20463;-89
2022/05/09 00:07:05;;;;;;;19.23;13.35;;;9.20;99.90;;;;;;5025048;28;20022;-88
2022/05/09 00:09:32;;;;;;;18.70;11.95;;;9.20;99.90;;;;;;5009140;28;20034;-89
2022/05/09 00:11:58;;;;;;;17.05;12.57;;;9.20;99.90;;;;;;4985937;28;20047;-88
2022/05/09 00:14:24;;;;;;;19.83;13.32;;;9.10;99.90;;;;;;4995951;28;20046;-89
2022/05/09 00:16:52;;;;;;;22.92;14.68;;;9.10;99.90;;;;;;5007961;28;20522;-89
2022/05/09 00:19:20;;;;;;;16.45;12.82;;;9.10;99.90;;;;;;4996399;28;20034;-89
2022/05/09 00:21:48;;;;;;;22.33;14.50;;;9.10;99.90;;;;;;4991507;28;20037;-89
2022/05/09 00:24:17;;;;;;;21.45;13.30;;;9.20;99.90;;;;;;4988051;28;20110;-88
2022/05/09 00:26:47;;;;;;;20.30;13.45;;;9.10;99.90;;;;;;4981192;28;20385;-89
2022/05/09 00:29:14;;;;;;;22.80;15.23;;;9.10;99.90;;;;;;4991928;28;20037;-89
2022/05/09 00:31:43;;;;;;;20.35;13.93;;;9.10;99.90;;;;;;5007881;28;20058;-89
2022/05/09 00:34:10;;;;;;;19.58;12.85;;;9.20;99.90;;;;;;5008837;28;20030;-89
2022/05/09 00:36:37;;;;;;;20.30;13.45;;;9.10;99.90;;;;;;4994170;28;20717;-89
2022/05/09 00:39:03;;;;;;;19.70;13.88;;;9.10;99.90;;;;;;4992869;28;20023;-89
2022/05/09 00:41:34;;;;;;;21.13;14.18;;;9.00;99.90;;;;;;5001041;28;20033;-89
2022/05/09 00:44:14;;;;;;;19.92;13.80;;;9.00;99.90;;;;;;5006289;28;20144;-89
2022/05/09 00:46:44;;;;;;;23.00;14.68;;;9.00;99.90;;;;;;5015859;28;20058;-88
2022/05/09 00:49:46;;;;;;;19.73;13.35;;;9.00;99.90;;;;;;5007386;28;20026;-89
2022/05/09 00:52:14;;;;;;;20.90;13.95;;;8.90;99.90;;;;;;5008109;28;20042;-89
2022/05/09 00:54:45;;;;;;;20.17;13.77;;;9.00;99.90;;;;;;5000395;28;20037;-89
2022/05/09 00:57:27;;;;;;;21.35;13.48;;;8.90;99.90;;;;;;4996410;28;20511;-89
2022/05/09 01:00:00;;;;;;;20.67;13.43;;;8.90;99.90;;;;;;4983223;28;20031;-88
2022/05/09 01:02:26;;;;;;;23.13;14.52;;;8.80;99.90;;;;;;4991772;28;20066;-89
2022/05/09 01:05:00;;;;;;;21.15;14.32;;;8.90;99.90;;;;;;4993262;28;20682;-89
2022/05/09 01:07:28;;;;;;;20.17;14.45;;;8.80;99.90;;;;;;5001527;28;20390;-89
2022/05/09 01:09:53;;;;;;;19.50;13.27;;;8.80;99.90;;;;;;4993179;28;20050;-89
2022/05/09 01:12:28;;;;;;;26.10;16.08;;;8.90;99.90;;;;;;4994040;28;20033;-89
2022/05/09 01:14:54;;;;;;;20.77;14.80;;;8.90;99.90;;;;;;4989041;28;20030;-88
2022/05/09 01:17:22;;;;;;;22.88;15.88;;;8.90;99.90;;;;;;4980542;28;20038;-89
2022/05/09 01:19:52;;;;;;;24.75;15.45;;;8.90;99.90;;;;;;4984209;28;20428;-88
2022/05/09 01:22:27;;;;;;;24.98;16.63;;;8.80;99.90;;;;;;4981794;28;20260;-89
2022/05/09 01:24:55;;;;;;;24.27;16.38;;;8.80;99.90;;;;;;4980922;28;20481;-89
2022/05/09 01:27:21;;;;;;;23.55;15.23;;;8.80;99.90;;;;;;4992225;28;20034;-89
2022/05/09 01:30:02;;;;;;;21.15;14.50;;;8.80;99.90;;;;;;4987486;28;20066;-89
2022/05/09 01:32:36;;;;;;;20.23;14.38;;;8.80;99.90;;;;;;4983714;28;20089;-89
2022/05/09 01:35:17;;;;;;;23.73;14.95;;;8.80;99.90;;;;;;4974512;28;20482;-89
2022/05/09 01:37:47;;;;;;;21.08;14.75;;;8.70;99.90;;;;;;4991990;28;20038;-89
2022/05/09 01:40:13;;;;;;;23.00;14.70;;;8.70;99.90;;;;;;4991770;28;20042;-89
2022/05/09 01:42:43;;;;;;;21.65;15.02;;;8.70;99.90;;;;;;5006386;28;20478;-89
2022/05/09 01:45:11;;;;;;;22.65;13.73;;;8.70;99.90;;;;;;5006074;28;20754;-88
2022/05/09 01:50:23;;;;;;;19.65;13.40;;;8.70;99.90;;;;;;4991833;28;20034;-89
2022/05/09 01:52:49;;;;;;;20.20;13.70;;;8.70;99.90;;;;;;4991723;28;20022;-89
2022/05/09 01:55:15;;;;;;;19.77;13.20;;;8.70;99.90;;;;;;4991293;28;20057;-88
2022/05/09 01:57:41;;;;;;;20.83;14.32;;;8.70;99.90;;;;;;4989100;28;20031;-89
2022/05/09 02:00:08;;;;;;;20.85;14.15;;;8.70;99.90;;;;;;5005788;28;20046;-89
2022/05/09 02:02:34;;;;;;;23.08;13.82;;;8.70;99.90;;;;;;4990893;28;20180;-89
2022/05/09 02:05:00;;;;;;;25.00;15.55;;;8.70;99.90;;;;;;4990918;28;20038;-89
2022/05/09 02:07:26;;;;;;;26.63;16.80;;;8.80;99.90;;;;;;4992578;28;20034;-88
2022/05/09 02:09:52;;;;;;;25.40;16.33;;;8.80;99.90;;;;;;4991114;28;20048;-88
2022/05/09 02:12:19;;;;;;;21.38;14.50;;;8.70;99.90;;;;;;5002946;28;20525;-88
2022/05/09 02:14:46;;;;;;;21.27;14.85;;;8.80;99.90;;;;;;4980807;28;20031;-89
2022/05/09 02:17:12;;;;;;;20.63;15.23;;;8.80;99.90;;;;;;5004239;28;20032;-89
2022/05/09 02:19:39;;;;;;;20.30;14.38;;;8.80;99.90;;;;;;4990990;28;20076;-89
2022/05/09 02:22:05;;;;;;;24.08;16.35;;;8.80;99.90;;;;;;4998340;28;20610;-89
2022/05/09 02:24:31;;;;;;;21.00;14.40;;;8.80;99.90;;;;;;4992109;28;20172;-89
2022/05/09 02:26:58;;;;;;;23.52;15.63;;;8.70;99.90;;;;;;4990698;28;20039;-89
2022/05/09 02:29:25;;;;;;;21.25;14.38;;;8.70;99.90;;;;;;4982518;28;20033;-89
2022/05/09 02:31:51;;;;;;;21.27;14.68;;;8.70;99.90;;;;;;5002959;28;20092;-89
2022/05/09 02:34:17;;;;;;;22.33;14.80;;;8.60;99.90;;;;;;4986875;28;20069;-89
2022/05/09 02:36:42;;;;;;;22.92;14.63;;;8.40;99.90;;;;;;5003173;28;20041;-89
2022/05/09 02:39:08;;;;;;;20.75;14.30;;;8.50;99.90;;;;;;4990718;28;20022;-89
2022/05/09 02:41:34;;;;;;;21.25;15.20;;;8.60;99.90;;;;;;4984707;28;20481;-89
2022/05/09 02:44:00;;;;;;;21.50;15.00;;;8.60;99.90;;;;;;4991038;28;20059;-89
2022/05/09 02:46:26;;;;;;;21.55;13.98;;;8.50;99.90;;;;;;4988986;28;20053;-89
2022/05/09 02:48:52;;;;;;;21.58;13.90;;;8.60;99.90;;;;;;4969793;28;20022;-89
2022/05/09 02:51:18;;;;;;;21.55;15.15;;;8.60;99.90;;;;;;4983743;28;20027;-89
2022/05/09 02:53:44;;;;;;;23.95;15.15;;;8.60;99.90;;;;;;5006217;28;20038;-89
2022/05/09 02:56:10;;;;;;;20.92;13.88;;;8.60;99.90;;;;;;5006179;28;20026;-88
2022/05/09 02:58:36;;;;;;;20.85;14.32;;;8.60;99.90;;;;;;4988538;28;20049;-89
2022/05/09 03:01:03;;;;;;;24.48;15.57;;;8.60;99.90;;;;;;4989428;28;20049;-89
2022/05/09 03:06:14;;;;;;;23.13;15.02;;;8.60;99.90;;;;;;4987753;28;20077;-89
2022/05/09 03:08:40;;;;;;;23.35;14.82;;;8.50;99.90;;;;;;4987874;28;20062;-89
2022/05/09 03:11:06;;;;;;;21.88;14.45;;;8.50;99.90;;;;;;4989981;28;20069;-89
2022/05/09 03:13:31;;;;;;;19.75;15.15;;;8.50;99.90;;;;;;4990028;28;20034;-89
2022/05/09 03:16:01;;;;;;;25.90;15.70;;;8.50;99.90;;;;;;4987410;28;20038;-89
2022/05/09 03:18:27;;;;;;;23.10;15.98;;;8.60;99.90;;;;;;4988679;28;20022;-89
2022/05/09 03:20:52;;;;;;;20.90;14.75;;;8.60;99.90;;;;;;4988171;28;20037;-89
2022/05/09 03:23:19;;;;;;;22.27;14.82;;;8.60;99.90;;;;;;4986058;28;20375;-89
2022/05/09 03:25:45;;;;;;;20.75;14.70;;;8.50;99.90;;;;;;4989960;28;20034;-89
2022/05/09 03:28:16;;;;;;;21.80;15.00;;;8.50;99.90;;;;;;4995231;28;20022;-89
2022/05/09 03:30:44;;;;;;;24.65;15.70;;;8.50;99.90;;;;;;4986501;28;20038;-89
2022/05/09 03:33:11;;;;;;;21.25;15.23;;;8.50;99.90;;;;;;4991257;28;20022;-89
2022/05/09 03:35:39;;;;;;;21.40;14.93;;;8.40;99.90;;;;;;5005140;28;20392;-89
2022/05/09 03:38:05;;;;;;;22.75;14.52;;;8.40;99.90;;;;;;4988226;28;20037;-89
2022/05/09 03:40:30;;;;;;;21.98;15.15;;;8.40;99.90;;;;;;4977829;28;20410;-89
2022/05/09 03:42:59;;;;;;;25.20;16.80;;;8.30;99.90;;;;;;4985593;28;20030;-89
2022/05/09 03:45:26;;;;;;;22.20;15.00;;;8.30;99.90;;;;;;5021863;28;20046;-89
2022/05/09 03:47:51;;;;;;;22.90;15.48;;;8.30;99.90;;;;;;5010235;28;20023;-89
2022/05/09 03:50:17;;;;;;;21.42;14.43;;;8.20;99.90;;;;;;5010846;28;20041;-89
2022/05/09 03:52:43;;;;;;;22.38;14.63;;;8.30;99.90;;;;;;5007831;28;20034;-88
2022/05/09 03:55:09;;;;;;;24.02;14.95;;;8.30;99.90;;;;;;4976368;28;20035;-89
2022/05/09 03:57:44;;;;;;;27.58;15.88;;;8.30;99.90;;;;;;4992865;28;20042;-89
2022/05/09 04:00:10;;;;;;;21.80;15.75;;;8.40;99.90;;;;;;4985051;28;20023;-89
2022/05/09 04:02:36;;;;;;;20.58;14.82;;;8.50;99.90;;;;;;5005893;28;20540;-89
2022/05/09 04:05:01;;;;;;;23.98;15.43;;;8.60;99.90;;;;;;4986044;28;20038;-89
2022/05/09 04:07:27;;;;;;;22.50;15.27;;;8.60;99.90;;;;;;4990489;28;20026;-89
2022/05/09 04:09:53;;;;;;;24.10;16.40;;;8.60;99.90;;;;;;4989711;28;20370;-89
2022/05/09 04:12:18;;;;;;;23.27;15.95;;;8.50;99.90;;;;;;4988141;28;20038;-89
2022/05/09 04:17:28;;;;;;;20.98;15.15;;;8.50;99.90;;;;;;4989472;28;20049;-89
2022/05/09 04:19:54;;;;;;;21.63;15.05;;;8.50;99.90;;;;;;4984751;28;20031;-89
2022/05/09 04:22:20;;;;;;;20.27;15.13;;;8.50;99.90;;;;;;4983521;28;20030;-89
2022/05/09 04:24:46;;;;;;;24.08;15.30;;;8.50;99.90;;;;;;4992843;28;20505;-89
2022/05/09 04:27:12;;;;;;;23.15;15.90;;;8.50;99.90;;;;;;4980790;28;20027;-89
2022/05/09 04:29:38;;;;;;;20.63;14.40;;;8.50;99.90;;;;;;5002342;28;20401;-89
2022/05/09 04:32:04;;;;;;;18.20;13.85;;;8.60;99.90;;;;;;4975481;28;20033;-89
2022/05/09 04:34:30;;;;;;;18.85;13.85;;;8.70;99.90;;;;;;4980480;28;20034;-89
2022/05/09 04:36:57;;;;;;;22.98;15.77;;;8.80;99.90;;;;;;4991180;28;20494;-89
2022/05/09 04:39:22;;;;;;;20.25;14.20;;;8.90;99.90;;;;;;4992599;28;20501;-89
2022/05/09 04:41:48;;;;;;;19.52;13.95;;;8.90;99.90;;;;;;4975108;28;20042;-88
2022/05/09 04:44:14;;;;;;;22.80;15.00;;;9.00;99.90;;;;;;4992809;28;20041;-88
2022/05/09 04:46:39;;;;;;;21.95;14.85;;;9.00;99.90;;;;;;5007317;28;20069;-88
2022/05/09 04:49:05;;;;;;;20.92;14.68;;;9.10;99.90;;;;;;5008519;28;20054;-89
2022/05/09 04:51:30;;;;;;;19.02;13.68;;;9.20;99.90;;;;;;4991799;28;20026;-89
2022/05/09 04:53:56;;;;;;;20.67;13.77;;;9.20;99.90;;;;;;4987205;28;20041;-89
2022/05/09 04:56:22;;;;;;;20.50;15.15;;;9.30;99.90;;;;;;4992954;28;20038;-89
2022/05/09 04:58:47;;;;;;;20.33;14.43;;;9.40;99.90;;;;;;4992026;28;20062;-88
2022/05/09 05:01:13;;;;;;;21.77;14.98;;;9.40;99.90;;;;;;5005409;28;20035;-89
2022/05/09 05:03:39;;;;;;;21.90;14.77;;;9.40;99.90;;;;;;4993572;28;20040;-88
2022/05/09 05:06:05;;;;;;;22.38;15.63;;;9.50;99.90;;;;;;5007842;28;20025;-87
2022/05/09 05:08:35;;;;;;;18.85;14.35;;;9.50;99.90;;;;;;5020330;28;20134;-87
2022/05/09 05:11:02;;;;;;;21.80;14.75;;;9.40;99.90;;;;;;5001968;28;20439;-88
2022/05/09 05:13:28;;;;;;;24.20;15.65;;;9.40;99.90;;;;;;4991763;28;20474;-89
2022/05/09 05:15:55;;;;;;;19.63;14.10;;;9.50;99.90;;;;;;4992550;28;20065;-88
2022/05/09 05:18:26;;;;;;;20.15;14.88;;;9.60;99.90;;;;;;4988734;28;20073;-88
2022/05/09 05:20:53;;;;;;;15.45;12.75;;;9.70;99.90;;;;;;4980123;28;20050;-89
2022/05/09 05:23:19;;;;;;;18.55;13.90;;;9.80;99.90;;;;;;4992893;28;20018;-89
2022/05/09 05:25:47;;;;;;;18.92;13.27;;;9.80;99.90;;;;;;4990494;28;20371;-89
2022/05/09 05:28:14;;;;;;;20.60;14.90;;;9.90;99.90;;;;;;5003636;28;20106;-89
2022/05/09 05:30:40;;;;;;;20.25;13.18;;;9.90;99.90;;;;;;4988765;28;20057;-89
2022/05/09 05:33:06;;;;;;;20.75;13.55;;;10.00;99.90;;;;;;4973025;28;20117;-88
2022/05/09 05:35:32;;;;;;;19.92;13.90;;;10.00;99.90;;;;;;4989863;28;20041;-87
2022/05/09 05:37:58;;;;;;;19.40;14.45;;;10.00;99.90;;;;;;5008015;28;20038;-86
2022/05/09 05:40:24;;;;;;;19.85;13.30;;;10.10;99.90;;;;;;5010832;28;20638;-86
2022/05/09 05:42:52;;;;;;;17.88;13.32;;;10.10;99.90;;;;;;4994076;28;20548;-86
2022/05/09 05:45:20;;;;;;;19.92;14.43;;;10.10;99.90;;;;;;4993036;28;20057;-86
2022/05/09 05:47:47;;;;;;;26.05;14.52;;;10.20;99.90;;;;;;4993187;28;20061;-86
2022/05/09 05:50:14;;;;;;;19.25;13.02;;;10.30;99.90;;;;;;4996924;28;20038;-86
2022/05/09 05:52:40;;;;;;;19.35;14.48;;;10.40;99.90;;;;;;4991603;28;20040;-86
2022/05/09 05:55:06;;;;;;;18.67;13.95;;;10.40;99.90;;;;;;4992357;28;20026;-86
2022/05/09 05:57:37;;;;;;;19.38;13.15;;;10.40;99.90;;;;;;4992088;28;20027;-86
2022/05/09 06:00:15;;;;;;;17.08;13.38;;;10.30;99.90;;;;;;4986038;28;20019;-87
2022/05/09 06:02:41;;;;;;;16.73;12.82;;;10.50;99.90;;;;;;4987412;28;20060;-87
2022/05/09 06:05:08;;;;;;;18.08;13.75;;;10.70;99.90;;;;;;4970125;28;20067;-86
2022/05/09 06:07:34;;;;;;;18.58;14.27;;;10.80;99.90;;;;;;4990020;28;20224;-87
2022/05/09 06:09:59;;;;;;;17.80;13.63;;;10.90;99.90;;;;;;4990410;28;20053;-87
2022/05/09 06:12:25;;;;;;;19.15;13.35;;;11.00;99.90;;;;;;4990209;28;20073;-88
2022/05/09 06:17:37;;;;;;;19.35;14.63;;;11.10;99.90;;;;;;4984802;28;20361;-87
2022/05/09 06:20:11;;;;;;;18.70;13.50;;;11.20;99.90;;;;;;4991418;28;20393;-87
2022/05/09 06:22:38;;;;;;;17.55;14.93;;;11.30;99.90;;;;;;4984836;28;20085;-87
2022/05/09 06:25:06;;;;;;;18.17;13.20;;;11.20;99.90;;;;;;4971943;28;20467;-87
2022/05/09 06:27:32;;;;;;;15.93;13.52;;;11.40;99.90;;;;;;5003849;28;20035;-87
2022/05/09 06:30:00;;;;;;;18.55;14.18;;;11.50;99.90;;;;;;4989746;28;20433;-88
2022/05/09 06:32:26;;;;;;;19.33;14.75;;;11.60;99.90;;;;;;4984817;28;20034;-88
2022/05/09 06:34:53;;;;;;;18.83;13.65;;;11.70;99.90;;;;;;4972877;28;20125;-88
2022/05/09 06:37:19;;;;;;;17.95;14.38;;;11.90;99.90;;;;;;4991799;28;20022;-87
2022/05/09 06:39:44;;;;;;;18.23;14.85;;;11.90;99.90;;;;;;4989382;28;20030;-88
2022/05/09 06:42:11;;;;;;;17.33;14.60;;;11.90;99.90;;;;;;4991738;28;20041;-88
2022/05/09 06:44:36;;;;;;;19.63;14.15;;;12.00;99.90;;;;;;4993972;28;20090;-87
2022/05/09 06:47:06;;;;;;;18.05;14.25;;;12.10;99.90;;;;;;5014578;28;20065;-88
2022/05/09 06:49:32;;;;;;;19.02;14.35;;;12.10;99.90;;;;;;5013025;28;20034;-88
2022/05/09 06:51:58;;;;;;;20.73;15.73;;;12.20;99.90;;;;;;5025261;28;20034;-87
2022/05/09 06:54:24;;;;;;;18.95;14.85;;;12.30;99.90;;;;;;5004977;28;20027;-87
2022/05/09 06:56:50;;;;;;;18.50;15.15;;;12.40;99.90;;;;;;4996203;28;20031;-87
2022/05/09 06:59:16;;;;;;;18.45;13.63;;;12.20;99.90;;;;;;4992257;28;20235;-87
2022/05/09 07:01:42;;;;;;;19.70;14.43;;;12.40;99.90;;;;;;4986969;28;20506;-88
2022/05/09 07:04:10;;;;;;;20.02;14.85;;;12.50;99.90;;;;;;4990710;28;20070;-88
2022/05/09 07:06:36;;;;;;;20.50;16.65;;;12.60;99.90;;;;;;4970043;28;20390;-88
2022/05/09 07:09:02;;;;;;;18.80;14.38;;;12.80;99.90;;;;;;4990709;28;20053;-88
2022/05/09 07:11:28;;;;;;;18.13;14.70;;;13.00;99.90;;;;;;4989948;28;20371;-88
2022/05/09 07:13:54;;;;;;;16.25;12.88;;;13.00;99.90;;;;;;4979862;28;20108;-88
2022/05/09 07:16:20;;;;;;;19.30;14.65;;;13.10;99.90;;;;;;4988499;28;20085;-88
2022/05/09 07:18:46;;;;;;;17.23;14.52;;;13.20;99.90;;;;;;5004417;28;20038;-88
2022/05/09 07:21:12;;;;;;;19.45;14.38;;;13.50;99.90;;;;;;4988245;28;20390;-87
2022/05/09 07:23:38;;;;;;;23.77;15.52;;;13.60;99.90;;;;;;4977023;28;20042;-88
2022/05/09 07:26:03;;;;;;;19.95;14.25;;;13.80;99.90;;;;;;4989449;28;20292;-87
2022/05/09 07:28:30;;;;;;;19.42;14.38;;;13.80;99.90;;;;;;4990545;28;20030;-87
2022/05/09 07:30:56;;;;;;;17.23;14.23;;;13.80;99.90;;;;;;4988450;28;20037;-88
2022/05/09 07:33:22;;;;;;;18.63;13.70;;;14.00;99.90;;;;;;4990570;28;20050;-87
2022/05/09 07:35:48;;;;;;;16.23;13.20;;;14.20;99.90;;;;;;4990107;28;20034;-87
2022/05/09 07:38:14;;;;;;;23.10;13.90;;;14.20;99.90;;;;;;4987594;28;20121;-88
2022/05/09 07:40:42;;;;;;;15.85;12.93;;;14.30;99.90;;;;;;4989209;28;20046;-88
2022/05/09 07:43:14;;;;;;;17.63;14.40;;;14.50;99.90;;;;;;4984383;28;20039;-89
2022/05/09 07:45:41;;;;;;;19.75;13.63;;;14.70;99.90;;;;;;4964082;28;20054;-88
2022/05/09 07:48:07;;;;;;;20.33;14.40;;;15.00;99.90;;;;;;4988715;28;20421;-89
2022/05/09 07:50:33;;;;;;;28.70;13.63;;;15.20;99.90;;;;;;5002342;28;20019;-88
2022/05/09 07:53:04;;;;;;;21.17;14.30;;;15.10;99.90;;;;;;4982721;28;20031;-88
2022/05/09 07:55:30;;;;;;;20.48;13.45;;;15.20;99.90;;;;;;4986431;28;20116;-88
2022/05/09 07:57:55;;;;;;;17.30;13.48;;;15.20;99.90;;;;;;4989644;28;20062;-88
2022/05/09 08:00:21;;;;;;;19.10;12.88;;;15.50;99.90;;;;;;4986963;28;20510;-88
2022/05/09 08:02:47;;;;;;;21.13;13.25;;;15.40;99.90;;;;;;4991543;28;20030;-88
2022/05/09 08:05:14;;;;;;;15.10;11.73;;;15.80;99.90;;;;;;5010169;28;20038;-89
2022/05/09 08:07:40;;;;;;;19.02;12.57;;;16.30;99.90;;;;;;4995575;28;20303;-88
2022/05/09 08:10:09;;;;;;;15.57;12.52;;;16.60;99.90;;;;;;4994145;28;20050;-88
2022/05/09 08:12:35;;;;;;;14.98;11.25;;;16.60;99.90;;;;;;4989242;28;20059;-89
2022/05/09 08:15:01;;;;;;;15.90;10.73;;;16.90;99.90;;;;;;4990426;28;20062;-89
2022/05/09 08:17:26;;;;;;;14.35;11.07;;;17.10;99.90;;;;;;4992563;28;20034;-88
2022/05/09 08:19:55;;;;;;;13.90;10.38;;;17.40;99.90;;;;;;5006330;28;20034;-88
2022/05/09 08:22:22;;;;;;;15.77;11.38;;;17.70;99.90;;;;;;5009259;28;20031;-88
2022/05/09 08:24:47;;;;;;;14.52;10.50;;;17.30;99.90;;;;;;4994347;28;20093;-88
2022/05/09 08:27:13;;;;;;;14.73;10.57;;;17.20;99.90;;;;;;4994549;28;20030;-87
2022/05/09 08:29:39;;;;;;;14.68;11.40;;;17.10;99.90;;;;;;4995945;28;20050;-87
2022/05/09 08:32:05;;;;;;;13.02;11.60;;;17.40;99.90;;;;;;4991881;28;20062;-87
2022/05/09 08:34:30;;;;;;;14.23;11.00;;;17.30;99.90;;;;;;5005559;28;20027;-87
2022/05/09 08:36:56;;;;;;;15.27;10.75;;;17.30;99.90;;;;;;4983314;28;20031;-85
2022/05/09 08:39:26;;;;;;;14.43;11.23;;;17.60;99.90;;;;;;4991851;28;20494;-87
2022/05/09 08:41:51;;;;;;;15.45;11.05;;;17.00;99.90;;;;;;4991554;28;20481;-87
2022/05/09 08:44:47;;;;;;;12.77;10.50;;;17.50;99.90;;;;;;4986430;28;20030;-87
2022/05/09 08:47:41;;;;;;;13.77;10.25;;;17.70;97.50;;;;;;4979712;28;20047;-87
2022/05/09 08:50:13;;;;;;;12.45;10.85;;;18.10;99.90;;;;;;4999895;28;20023;-87
2022/05/09 08:52:45;;;;;;;12.15;9.43;;;18.30;99.90;;;;;;4986172;28;20023;-87
2022/05/09 08:55:13;;;;;;;12.40;10.82;;;18.00;96.90;;;;;;4992277;28;20110;-88
2022/05/09 08:57:51;;;;;;;12.60;10.50;;;18.10;99.90;;;;;;4989225;28;20041;-88
2022/05/09 09:00:20;;;;;;;11.88;10.48;;;18.30;97.40;;;;;;4983774;28;20030;-87
2022/05/09 09:03:05;;;;;;;13.82;10.95;;;18.60;95.60;;;;;;4988908;28;20027;-88
2022/05/09 09:05:34;;;;;;;11.45;10.25;;;18.80;96.50;;;;;;4978259;28;20474;-88
2022/05/09 09:08:04;;;;;;;10.77;8.80;;;19.00;95.60;;;;;;4990873;28;20027;-88
2022/05/09 09:10:47;;;;;;;11.13;9.85;;;18.80;91.60;;;;;;4998006;28;20034;-88
2022/05/09 09:13:30;;;;;;;10.48;9.45;;;19.20;95.60;;;;;;4991058;28;20528;-88
2022/05/09 09:16:17;;;;;;;12.00;10.77;;;19.70;94.10;;;;;;4993091;28;20478;-88
2022/05/09 09:19:07;;;;;;;10.80;9.70;;;19.80;91.10;;;;;;4992890;28;20058;-88
2022/05/09 09:21:43;;;;;;;11.20;9.38;;;20.00;89.20;;;;;;4986333;28;20027;-87
2022/05/09 09:24:36;;;;;;;12.15;9.70;;;20.30;79.20;;;;;;4986104;28;20037;-88
2022/05/09 09:27:20;;;;;;;15.60;9.63;;;19.80;91.20;;;;;;4992364;28;20049;-88
2022/05/09 09:29:51;;;;;;;10.23;9.02;;;19.40;87.20;;;;;;4989318;28;20041;-87
2022/05/09 09:32:19;;;;;;;13.73;9.07;;;19.30;88.60;;;;;;4991954;28;20404;-87
2022/05/09 09:35:00;;;;;;;12.95;10.18;;;19.20;85.80;;;;;;4992899;28;20035;-87
2022/05/09 09:37:33;;;;;;;12.15;9.25;;;19.40;86.70;;;;;;4972141;28;20030;-87
2022/05/09 09:39:59;;;;;;;10.57;8.35;;;20.30;85.60;;;;;;4986787;28;20030;-87
2022/05/09 09:42:25;;;;;;;14.25;9.57;;;21.00;73.60;;;;;;4994213;28;20073;-87
2022/05/09 09:44:53;;;;;;;12.40;9.27;;;20.50;76.90;;;;;;4979499;28;20062;-88
2022/05/09 09:47:18;;;;;;;12.10;9.27;;;19.90;82.00;;;;;;5017746;28;20128;-88
2022/05/09 09:49:45;;;;;;;11.70;9.88;;;19.80;80.10;;;;;;4998537;28;20050;-88
2022/05/09 09:52:19;;;;;;;10.68;9.32;;;19.80;82.70;;;;;;4999363;28;20037;-87
2022/05/09 09:54:56;;;;;;;10.48;9.13;;;20.10;76.10;;;;;;5007703;28;20035;-87
2022/05/09 09:57:37;;;;;;;9.30;8.40;;;20.20;78.30;;;;;;5023400;28;20260;-87
2022/05/09 10:00:30;;;;;;;11.70;8.18;;;20.40;77.80;;;;;;5002726;28;20107;-87
2022/05/09 10:03:19;;;;;;;12.40;7.85;;;21.00;70.40;;;;;;4986034;28;20057;-87
2022/05/09 10:05:46;;;;;;;10.98;8.65;;;20.70;75.70;;;;;;5003498;28;20046;-87
2022/05/09 10:08:35;;;;;;;10.52;8.95;;;20.70;69.90;;;;;;5018255;28;20386;-84
2022/05/09 10:11:12;;;;;;;10.48;9.32;;;19.80;74.30;;;;;;4978913;28;20024;-84
2022/05/09 10:13:47;;;;;;;11.05;9.50;;;19.90;73.80;;;;;;5001731;28;20041;-83
2022/05/09 10:16:33;;;;;;;9.40;8.48;;;20.20;77.50;;;;;;4993162;28;20029;-82
2022/05/09 10:19:10;;;;;;;10.38;8.23;;;20.50;74.00;;;;;;5003230;28;20486;-82
2022/05/09 10:24:48;;;;;;;9.25;8.27;;;21.80;65.40;;;;;;4991618;28;20493;-82
2022/05/09 10:27:28;;;;;;;12.85;9.05;;;21.30;63.90;;;;;;4990440;28;20027;-82
2022/05/09 10:30:30;;;;;;;9.13;7.95;;;22.00;68.30;;;;;;4991252;28;20088;-82
2022/05/09 10:33:25;;;;;;;10.15;8.77;;;22.70;63.40;;;;;;4988911;28;20034;-82
2022/05/09 10:35:56;;;;;;;9.30;8.23;;;22.10;63.20;;;;;;4992248;28;20137;-82
2022/05/09 10:38:48;;;;;;;9.65;8.73;;;22.60;61.40;;;;;;4989340;28;20034;-81
2022/05/09 10:41:31;;;;;;;11.23;8.95;;;21.10;64.10;;;;;;4987157;28;20058;-82
2022/05/09 10:43:58;;;;;;;9.70;8.63;;;21.70;64.90;;;;;;4986098;28;20026;-82
2022/05/09 10:46:51;;;;;;;9.85;7.80;;;21.90;63.90;;;;;;4988396;28;20038;-81
2022/05/09 10:49:41;;;;;;;9.77;8.23;;;22.10;64.30;;;;;;4988340;28;20050;-81
2022/05/09 10:52:41;;;;;;;9.68;7.85;;;22.50;61.50;;;;;;4979140;28;20034;-81
2022/05/09 10:55:22;;;;;;;17.08;8.60;;;22.70;60.10;;;;;;4988387;28;20034;-81
2022/05/09 10:58:07;;;;;;;9.02;8.13;;;22.50;60.10;;;;;;4990399;28;20033;-81
2022/05/09 11:00:40;;;;;;;10.20;7.88;;;23.20;57.20;;;;;;4985096;28;20046;-81
2022/05/09 11:03:11;;;;;;;8.70;7.80;;;23.90;56.20;;;;;;5005763;28;20030;-81
2022/05/09 11:06:06;;;;;;;9.70;8.35;;;22.60;57.10;;;;;;4986374;28;20085;-81
2022/05/09 11:08:56;;;;;;;11.38;8.35;;;22.30;59.50;;;;;;4969949;28;20230;-81
2022/05/09 11:11:31;;;;;;;8.70;7.30;;;22.90;58.40;;;;;;4989132;28;20458;-82
2022/05/09 11:14:25;;;;;;;15.68;7.95;;;24.40;55.00;;;;;;4991503;28;20605;-82
2022/05/09 11:17:10;;;;;;;9.70;8.10;;;23.40;53.50;;;;;;4986916;28;20023;-82
2022/05/09 11:19:48;;;;;;;12.35;8.75;;;22.90;54.30;;;;;;4990059;28;20022;-86
2022/05/09 11:22:51;;;;;;;9.35;8.07;;;23.10;55.90;;;;;;4992592;28;20394;-86
2022/05/09 11:25:38;;;;;;;9.65;8.68;;;22.50;55.60;;;;;;4992717;28;20037;-86
2022/05/09 11:28:12;;;;;;;8.52;7.57;;;22.70;59.50;;;;;;5003989;28;20092;-85
2022/05/09 11:30:46;;;;;;;8.70;7.85;;;23.30;56.70;;;;;;4990591;28;20125;-85
2022/05/09 11:33:34;;;;;;;10.88;8.93;;;24.00;52.90;;;;;;4990171;28;20359;-86
2022/05/09 11:36:29;;;;;;;9.27;8.38;;;23.10;53.60;;;;;;4986855;28;20027;-87
2022/05/09 11:39:15;;;;;;;8.55;7.63;;;21.70;56.80;;;;;;4990035;28;20030;-85
2022/05/09 11:45:11;;;;;;;8.07;7.28;;;20.90;60.90;;;;;;4986275;28;20041;-86
2022/05/09 11:47:55;;;;;;;9.20;8.30;;;22.20;57.40;;;;;;5005335;28;20030;-85
2022/05/09 11:50:31;;;;;;;8.40;7.40;;;23.70;57.50;;;;;;5005580;28;20038;-86
2022/05/09 11:52:59;;;;;;;7.57;6.75;;;24.40;51.70;;;;;;5001768;28;20023;-86
2022/05/09 11:55:26;;;;;;;9.02;7.57;;;25.30;47.10;;;;;;5005120;28;20061;-85
2022/05/09 11:57:55;;;;;;;10.05;7.55;;;25.20;45.60;;;;;;4988742;28;20042;-84
2022/05/09 12:00:29;;;;;;;9.15;7.53;;;24.10;48.10;;;;;;4989955;28;20109;-85
2022/05/09 12:02:57;;;;;;;9.68;8.30;;;23.30;49.80;;;;;;4990487;28;20036;-85
2022/05/09 12:05:25;;;;;;;8.90;8.05;;;22.60;54.40;;;;;;4989447;28;20482;-86
2022/05/09 12:07:55;;;;;;;9.35;8.35;;;22.80;54.70;;;;;;4990235;28;20109;-85
2022/05/09 12:10:30;;;;;;;8.70;7.57;;;24.90;50.70;;;;;;4988931;28;20110;-85
2022/05/09 12:13:04;;;;;;;8.40;7.50;;;25.80;47.00;;;;;;4989938;28;20493;-85
2022/05/09 12:15:29;;;;;;;8.10;7.07;;;26.70;44.50;;;;;;5002011;28;20038;-85
2022/05/09 12:17:58;;;;;;;9.63;7.70;;;25.60;44.80;;;;;;4989844;28;20119;-85
2022/05/09 12:20:26;;;;;;;8.80;7.35;;;25.70;43.60;;;;;;4986920;28;20490;-86
2022/05/09 12:23:06;;;;;;;10.02;7.70;;;24.90;45.10;;;;;;5005407;28;20282;-85
2022/05/09 12:25:36;;;;;;;8.65;7.35;;;23.80;47.70;;;;;;4989428;28;20026;-87
2022/05/09 12:28:22;;;;;;;8.32;7.53;;;22.50;50.40;;;;;;4990825;28;20018;-86
2022/05/09 12:30:53;;;;;;;7.97;7.18;;;22.30;52.80;;;;;;5000530;28;20038;-87
2022/05/09 12:33:46;;;;;;;8.77;7.22;;;24.80;49.50;;;;;;4989390;28;20472;-86
2022/05/09 12:36:21;;;;;;;9.02;8.02;;;25.50;45.20;;;;;;4986412;28;20023;-86
2022/05/09 12:38:49;;;;;;;7.80;6.95;;;26.30;43.10;;;;;;4970620;28;20044;-87
2022/05/09 12:41:15;;;;;;;8.40;6.93;;;26.10;42.80;;;;;;4980297;28;20026;-87
2022/05/09 12:44:13;;;;;;;9.05;6.75;;;27.30;41.60;;;;;;5000537;28;20033;-86
2022/05/09 12:46:54;;;;;;;8.50;7.65;;;27.00;42.60;;;;;;4992568;28;20117;-87
2022/05/09 12:49:46;;;;;;;8.60;7.28;;;25.50;44.40;;;;;;4991517;28;20114;-87
2022/05/09 12:52:19;;;;;;;9.20;6.88;;;24.50;44.90;;;;;;4984264;28;20034;-87
2022/05/09 12:57:39;;;;;;;7.88;7.07;;;22.70;49.90;;;;;;5013130;28;20085;-87
2022/05/09 13:00:14;;;;;;;7.40;6.57;;;22.40;50.80;;;;;;5013790;28;20034;-87
2022/05/09 13:02:40;;;;;;;7.88;7.05;;;22.00;51.70;;;;;;5009100;28;20051;-87
2022/05/09 13:05:07;;;;;;;9.68;7.43;;;22.20;52.50;;;;;;4999834;28;20037;-87
2022/05/09 13:07:32;;;;;;;8.45;7.60;;;22.80;53.70;;;;;;4991406;28;20030;-86
2022/05/09 13:09:58;;;;;;;11.70;8.00;;;25.40;46.80;;;;;;5003940;28;20031;-86
2022/05/09 13:12:37;;;;;;;17.73;7.50;;;26.90;43.20;;;;;;4992631;28;20106;-87
2022/05/09 13:15:21;;;;;;;8.27;7.45;;;27.60;41.30;;;;;;4989034;28;20058;-88